New York, NY (10013)

3:54 AM EDT on September 16, 2014 (GMT -0400)
Williamsburg | Change Station
CLOSE
Current Station
Personal Weather Station
Location: Brooklyn, NY
Elevation: 64 ft
Nearby Weather Stations

Elev 64 ft 40.72 °N, 73.96 °W | Updated 1 minute ago

Overcast
Overcast
60.0 °F
Feels Like 60.0 °F
N
4.5
Wind Variable Wind from NW
Gusts 7.6 mph

Today
High -- | Low -- °F
--% Chance of Precip.
Yesterday
High -- | Low -- °F
Precip. -- in
6:37 AM 7:03 PM
Waning Gibbous, 48% visible
Pressure 30.05 in
Visibility 10.0 miles
Clouds Clear
Dew Point 49 °F
Humidity 64%
Rainfall 0.00 in
Snow Depth Not available.
UV 0 out of 12
Pollen 3.30 out of 12
PM2.5 Good
Flu Activity Not available.
METAR KNYC 160651Z AUTO VRB04KT 10SM CLR 17/11 A3007 RMK AO2 SLP175 T01720111 $

More Conditions Fewer Conditions

Pressure 30.05 in
Visibility 10.0 miles
Clouds Clear
Dew Point 49 °F
Humidity 64%
Rainfall 0.00 in
Snow Depth Not available.
UV 0 out of 12
Pollen 3.30 out of 12
PM2.5 Good
Flu Activity Not available.
METAR KNYC 160651Z AUTO VRB04KT 10SM CLR 17/11 A3007 RMK AO2 SLP175 T01720111 $

More Conditions Fewer Conditions

10-Day Weather Forecast

Almanac

Astronomy

Sep. 16, 2014 Rise Set
Actual Time 6:37 AM EDT 7:03 PM EDT
Civil Twilight 6:10 AM EDT 7:30 PM EDT
Nautical Twilight 5:37 AM EDT 8:03 PM EDT
Astronomical Twilight 5:04 AM EDT 8:36 PM EDT
Moon No Moon Rise 2:26 PM EDT
Length of Visible Light 13h 20m
Length of Day
12h 25m
Tomorrow will be 2m 40s shorter.
Waning Gibbous, 48% of the Moon is Illuminated
Today
Waning Gibbous
Sep 24
New
Oct 1
First Quarter
Oct 8
Full
Oct 15
Last Quarter

Today's Extremes

State Highs State Lows

Community

WunderPhotos

Upload Photos

1,753,712 photos uploaded!

Nearby

Air Quality

  Air Quality AQ Index Pollutant
Yesterday Good
OZONE
Yesterday Good
PM2.5
Current Good
PM2.5
Tuesday Moderate
PM2.5
Tuesday Good
OZONE

Snow Depth

Station Depth Elevation
No new snow has been reported.

Earthquake Activity

City Distance Mag. Time & Date
No recent earthquake activity has been reported nearby.
Minimum magnitude displayed is 2.5.

Coastal Water Temperatures

Place Temperature
Sandy Hook, NJ 70.0 °F
The Battery, NY 71.1 °F
Bergen Point West Reach, NJ 71.1 °F

Nearby Weather Stations